KFME/FME METAR and TAF weather

Enter ICAO airport designator
Station Type Date Time Source
KFME METAR 2019/05/20 10:21 UTC NOAA

KFME 201021Z AUTO 23007KT 10SM CLR 21/17 A2991 RMK AO1


Station Type Date Time Source
KFME Decoded METAR 2019/05/20 10:21 UTC NOAA

Fort Meade / Tipton, MD, United States (KFME) 39-05N 076-46W
May 20, 2019 - 06:21 AM EDT / 2019.05.20 1021 UTC
Wind: from the SW (230 degrees) at 8 MPH (7 KT):0
Visibility: 10 mile(s):0
Sky conditions: clear
Temperature: 69 F (21 C)
Dew Point: 62 F (17 C)
Relative Humidity: 77%
Pressure (altimeter): 29.91 in. Hg (1012 hPa)
ob: KFME 201021Z AUTO 23007KT 10SM CLR 21/17 A2991 RMK AO1
cycle: 10

Station Type Date Time Source
KFME TAF UTC NOAA

Error!

Example: see airport list